Česky Dansk Deutsch English Español Suomi Français Magyar Italiano Nederlands norsk Polski Português svenska Türkçe

 

Het Weer

Sundsvall-Harnosand Flygplats (Zweden)

09:50, 16 augustus 2016 (GMT)

NWNNE
WE
SWSSE
Home            
Sundsvall-Harnosand Flygplats Kramfors Flygplats Ornskoldsvik Airport Soderhamn Soderhamn Ostersund / Froson Umea Flygplats Gavle / Sandviken Air Force Base Vaasa Lycksele Siljan / Mora Borlange Pori Gunnarn Seinajoki-Ilmajok Ilmajoki Kauhava Skelleftea Airport Uppsala Mariehamn / Aland Island Roros Lufthavn Kruunupyy Stockholm / Arlanda

Om een weerknop op uw website of weblog te plaatsen, copieer onderstaande code en plak die in uw pagina. In het eerste vakje staat HTML-code, in het tweede vakje UBB-code.


Add to Google

Details

Wind speed:4 bf, 13 kn, 6.7 m/s, 15.0 miles/h, 24.1 km/h
Wind direction:NW, 320°
Visibility:Greater than 10000 m, 10 km, 32800 ft, 6.2 miles
Clouds:CAVOC
Temperature:18°C, 64°F
Dew-point:8°C, 46°F
Atmospheric pressure:1017 hPa, 762.8 mmHg, 30.03 inHg, 1.004 atm
Relative humidity:52.0 %
METAR:ESNN 160950Z 32013KT CAVOK 18/08 Q1017

Snelkoppelingen

Actuele weersinformatie van de hele wereld. Voeg locaties toe met het plus (+) symbool. Deze snelkoppelingen kunnen worden toegevoegd aan Google.

Lid van de Technetium groep

website free tracking
StatCounter NetStat W3C Validator

24-10-2020 01:51:52
astro.technetium.be money.technetium.be phote.technetium.be tafeltennistafel.technetium.be www.ligfiets.net